Latest Weather Observations for North Head

IDN60801

Issued at 2:05 pm EDT Thursday 23 October 2014 (issued every 30 minutes, with the page automatically refreshed every 10 minutes)

About weather observations | Map of weather stations | Latest weather observations for NSW | Other Formats
Station Details ID: 066197 Name: NORTH HEAD Lat: -33.82 Lon: 151.30 Height: 90.0 m
Data from the previous 72 hours. | See also: Recent months for locations in New South Wales
Date/Time
EDT
Temp
°C
App
Temp
°C
Dew
Point
Rel
Hum
%
Delta-T
°C
Wind Press
QNH
hPa
Press
MSL
hPa
Rain
since 9 am
mm
Dir
 
Spd
km/h
Gust
km/h
Spd
kts
Gust
kts
23/02:00pm - - - - - ENE 7 9 4 5 - - -
23/01:30pm - - - - - ENE 4 7 2 4 - - -
23/01:00pm - - - - - E 6 9 3 5 - - -
23/12:30pm - - - - - ENE 6 9 3 5 - - -
23/12:00pm - - - - - ENE 9 13 5 7 - - -
23/11:30am - - - - - E 9 13 5 7 - - -
23/11:00am - - - - - ENE 7 11 4 6 - - -
23/10:30am - - - - - ESE 4 7 2 4 - - -
23/10:00am - - - - - W 4 6 2 3 - - -
23/09:30am - - - - - NNE 7 11 4 6 - - -
23/09:00am - - - - - NNW 4 6 2 3 - - -
23/08:30am - - - - - NNW 6 9 3 5 - - -
23/08:00am - - - - - NW 7 11 4 6 - - -
23/07:30am - - - - - NNW 6 11 3 6 - - -
23/07:00am - - - - - N 6 7 3 4 - - -
23/06:30am - - - - - N 6 9 3 5 - - -
23/06:00am - - - - - N 9 13 5 7 - - -
23/05:30am - - - - - N 9 13 5 7 - - -
23/05:00am - - - - - N 9 11 5 6 - - -
23/04:30am - - - - - N 9 13 5 7 - - -
23/04:00am - - - - - N 9 13 5 7 - - -
23/03:30am - - - - - N 9 11 5 6 - - -
23/03:00am - - - - - N 9 13 5 7 - - -
23/02:30am - - - - - N 11 13 6 7 - - -
23/02:00am - - - - - N 11 17 6 9 - - -
23/01:30am - - - - - NNE 17 24 9 13 - - -
23/01:00am - - - - - NNE 19 28 10 15 - - -
23/12:30am - - - - - NNE 19 28 10 15 - - -
23/12:00am - - - - - NNE 20 32 11 17 - - -
 
Date/Time
EDT
Temp
°C
App
Temp
°C
Dew
Point
Rel
Hum
%
Delta-T
°C
Wind Press
QNH
hPa
Press
MSL
hPa
Rain
since 9 am
mm
Dir
 
Spd
km/h
Gust
km/h
Spd
kts
Gust
kts
22/11:30pm - - - - - NNE 22 32 12 17 - - -
22/11:00pm - - - - - NNE 20 33 11 18 - - -
22/10:30pm - - - - - NNE 20 33 11 18 - - -
22/10:00pm - - - - - NNE 19 35 10 19 - - -
22/09:30pm - - - - - NNE 20 33 11 18 - - -
22/09:00pm - - - - - NNE 20 28 11 15 - - -
22/08:30pm - - - - - NNE 19 28 10 15 - - -
22/08:00pm - - - - - NNE 20 32 11 17 - - -
22/07:30pm - - - - - NNE 22 33 12 18 - - -
22/07:00pm - - - - - NNE 20 32 11 17 - - -
22/06:30pm - - - - - NNE 20 33 11 18 - - -
22/06:00pm - - - - - NNE 22 37 12 20 - - -
22/05:30pm - - - - - NNE 20 32 11 17 - - -
22/05:00pm - - - - - NE 20 32 11 17 - - -
22/04:30pm - - - - - NE 22 32 12 17 - - -
22/04:00pm - - - - - NE 20 33 11 18 - - -
22/03:30pm - - - - - NE 22 33 12 18 - - -
22/03:00pm - - - - - NE 22 35 12 19 - - -
22/02:30pm - - - - - NE 19 28 10 15 - - -
22/02:00pm - - - - - NE 20 32 11 17 - - -
22/01:30pm - - - - - ENE 19 28 10 15 - - -
22/01:00pm - - - - - ENE 15 24 8 13 - - -
22/12:30pm - - - - - NE 15 24 8 13 - - -
22/12:00pm - - - - - NNE 11 19 6 10 - - -
22/11:30am - - - - - NNE 15 22 8 12 - - -
22/11:00am - - - - - NNE 13 20 7 11 - - -
22/10:30am - - - - - NNE 15 24 8 13 - - -
22/10:00am - - - - - NNE 11 15 6 8 - - -
22/09:30am - - - - - NNE 9 15 5 8 - - -
22/09:00am - - - - - N 6 11 3 6 - - -
22/08:30am - - - - - N 4 7 2 4 - - -
22/08:00am - - - - - NW 4 6 2 3 - - -
22/07:30am - - - - - NNW 6 11 3 6 - - -
22/07:00am - - - - - WNW 4 6 2 3 - - -
22/06:30am - - - - - NW 4 7 2 4 - - -
22/06:00am - - - - - NW 7 9 4 5 - - -
22/05:30am - - - - - NW 6 7 3 4 - - -
22/05:00am - - - - - NW 6 6 3 3 - - -
22/04:30am - - - - - WNW 6 6 3 3 - - -
22/04:00am - - - - - NNW 6 7 3 4 - - -
22/03:30am - - - - - NW 4 4 2 2 - - -
22/03:00am - - - - - WNW 6 7 3 4 - - -
22/02:30am - - - - - NE 7 9 4 5 - - -
22/02:00am - - - - - ENE 6 11 3 6 - - -
22/01:30am - - - - - E 2 4 1 2 - - -
22/01:00am - - - - - NE 2 6 1 3 - - -
22/12:30am - - - - - CALM 0 0 0 0 - - -
22/12:00am - - - - - CALM 0 0 0 0 - - -
 
Date/Time
EDT
Temp
°C
App
Temp
°C
Dew
Point
Rel
Hum
%
Delta-T
°C
Wind Press
QNH
hPa
Press
MSL
hPa
Rain
since 9 am
mm
Dir
 
Spd
km/h
Gust
km/h
Spd
kts
Gust
kts
21/11:30pm - - - - - ENE 6 13 3 7 - - -
21/11:00pm - - - - - ENE 22 33 12 18 - - -
21/10:30pm - - - - - ENE 9 15 5 8 - - -
21/10:00pm - - - - - ENE 11 20 6 11 - - -
21/09:30pm - - - - - ENE 15 26 8 14 - - -
21/09:00pm - - - - - ENE 13 20 7 11 - - -
21/08:30pm - - - - - ENE 15 26 8 14 - - -
21/08:00pm - - - - - E 15 22 8 12 - - -
21/07:30pm - - - - - ENE 13 22 7 12 - - -
21/07:00pm - - - - - ENE 11 17 6 9 - - -
21/06:30pm - - - - - ENE 11 19 6 10 - - -
21/06:00pm - - - - - E 13 22 7 12 - - -
21/05:30pm - - - - - E 13 22 7 12 - - -
21/05:00pm - - - - - E 9 17 5 9 - - -
21/04:30pm - - - - - E 11 15 6 8 - - -
21/04:00pm - - - - - E 11 20 6 11 - - -
21/03:30pm - - - - - E 13 19 7 10 - - -
21/03:00pm - - - - - E 11 22 6 12 - - -
21/02:30pm - - - - - E 11 19 6 10 - - -
21/02:00pm - - - - - E 13 20 7 11 - - -
21/01:30pm - - - - - E 17 22 9 12 - - -
21/01:00pm - - - - - E 17 26 9 14 - - -
21/12:30pm - - - - - E 11 17 6 9 - - -
21/12:00pm - - - - - E 11 17 6 9 - - -
21/11:30am - - - - - E 13 19 7 10 - - -
21/11:00am - - - - - ESE 13 20 7 11 - - -
21/10:30am - - - - - ESE 15 22 8 12 - - -
21/10:00am - - - - - E 15 24 8 13 - - -
21/09:30am - - - - - E 15 20 8 11 - - -
21/09:00am - - - - - E 17 26 9 14 - - -
21/08:30am - - - - - ESE 19 26 10 14 - - -
21/08:00am - - - - - E 19 28 10 15 - - -
21/07:30am - - - - - ESE 17 24 9 13 - - -
21/07:00am - - - - - ESE 15 26 8 14 - - -
21/06:30am - - - - - ESE 15 22 8 12 - - -
21/06:00am - - - - - ESE 13 22 7 12 - - -
21/05:30am - - - - - SSE 13 22 7 12 - - -
21/05:00am - - - - - ESE 13 28 7 15 - - -
21/04:30am - - - - - SE 9 17 5 9 - - -
21/04:00am - - - - - SSE 11 20 6 11 - - -
21/03:30am - - - - - SE 11 20 6 11 - - -
21/03:00am - - - - - ESE 13 26 7 14 - - -
21/02:30am - - - - - ESE 17 26 9 14 - - -
21/02:00am - - - - - ESE 20 33 11 18 - - -
21/01:30am - - - - - E 19 30 10 16 - - -
21/01:00am - - - - - ESE 19 28 10 15 - - -
21/12:30am - - - - - E 15 24 8 13 - - -
21/12:00am - - - - - ESE 22 33 12 18 - - -
 
Date/Time
EDT
Temp
°C
App
Temp
°C
Dew
Point
Rel
Hum
%
Delta-T
°C
Wind Press
QNH
hPa
Press
MSL
hPa
Rain
since 9 am
mm
Dir
 
Spd
km/h
Gust
km/h
Spd
kts
Gust
kts
20/11:30pm - - - - - ESE 19 32 10 17 - - -
20/11:00pm - - - - - ESE 22 30 12 16 - - -
20/10:30pm - - - - - E 19 26 10 14 - - -
20/10:00pm - - - - - SE 20 30 11 16 - - -
20/09:30pm - - - - - ESE 17 26 9 14 - - -
20/09:00pm - - - - - SE 20 32 11 17 - - -
20/08:30pm - - - - - ESE 19 32 10 17 - - -
20/08:00pm - - - - - SE 15 24 8 13 - - -
20/07:30pm - - - - - SE 24 37 13 20 - - -
20/07:00pm - - - - - SSE 20 30 11 16 - - -
20/06:30pm - - - - - SSE 20 35 11 19 - - -
20/06:00pm - - - - - SSE 22 35 12 19 - - -
20/05:30pm - - - - - SSE 22 32 12 17 - - -
20/05:00pm - - - - - SSE 24 35 13 19 - - -
20/04:30pm - - - - - SSE 28 41 15 22 - - -
20/04:00pm - - - - - S 26 39 14 21 - - -
20/03:30pm - - - - - S 22 32 12 17 - - -
20/03:00pm - - - - - S 24 37 13 20 - - -
20/02:30pm - - - - - S 26 37 14 20 - - -

Other Formats:

Comma delimited format used in spreadsheet applications
http://www.bom.gov.au/fwo/IDN60801/IDN60801.95768.axf

JavaScript Object Notation format (JSON) in row-major order
http://www.bom.gov.au/fwo/IDN60801/IDN60801.95768.json